Time;durP1;ratioP1;P1;durP2;ratioP2;P2;SDS_P1;SDS_P2;PMS_P1;PMS_P2;Temp;Humidity;BMP_temperature;BMP_pressure;BME280_temperature;BME280_humidity;BME280_pressure;Samples;Min_cycle;Max_cycle;Signal;HPM_P1;HPM_P2
2021/04/19 00:01:49;;;;;;;16.33;10.70;;;;;;;7.76;64.59;99180.84;3542550;40;20085;-66
2021/04/19 00:04:17;;;;;;;16.40;11.77;;;;;;;7.79;64.56;99173.41;3551190;40;20030;-67
2021/04/19 00:06:44;;;;;;;14.88;10.18;;;;;;;7.71;64.62;99168.16;3550093;40;20105;-64
2021/04/19 00:09:10;;;;;;;14.75;10.73;;;;;;;7.72;64.78;99174.25;3550496;40;20058;-68
2021/04/19 00:11:38;;;;;;;13.75;11.20;;;;;;;7.69;64.89;99175.41;3549711;40;20091;-68
2021/04/19 00:14:05;;;;;;;18.38;10.40;;;;;;;7.63;65.37;99165.53;3541374;40;20315;-67
2021/04/19 00:16:32;;;;;;;14.60;11.15;;;;;;;7.67;65.33;99164.19;3552010;40;20052;-67
2021/04/19 00:19:00;;;;;;;13.40;11.00;;;;;;;7.69;65.42;99170.13;3551262;40;20054;-67
2021/04/19 00:21:27;;;;;;;17.60;11.48;;;;;;;7.69;66.06;99170.13;3553706;40;20030;-67
2021/04/19 00:23:54;;;;;;;17.55;11.90;;;;;;;7.81;66.20;99168.81;3545087;40;20331;-70
2021/04/19 00:26:21;;;;;;;18.50;11.35;;;;;;;7.86;66.30;99166.50;3550311;40;20042;-67
2021/04/19 00:28:47;;;;;;;17.00;12.13;;;;;;;7.86;66.46;99165.69;3548452;40;20400;-68
2021/04/19 00:31:14;;;;;;;17.55;12.30;;;;;;;7.85;66.85;99164.03;3549256;40;20046;-68
2021/04/19 00:33:41;;;;;;;16.40;11.68;;;;;;;7.84;67.01;99155.31;3549981;40;20086;-66
2021/04/19 00:36:10;;;;;;;16.20;11.30;;;;;;;7.83;67.45;99158.94;3550600;40;20360;-66
2021/04/19 00:38:36;;;;;;;13.48;10.52;;;;;;;7.91;67.59;99153.66;3549645;40;20053;-66
2021/04/19 00:41:06;;;;;;;15.63;12.35;;;;;;;8.01;67.59;99148.22;3549847;40;20062;-66
2021/04/19 00:43:32;;;;;;;17.23;13.70;;;;;;;8.07;67.30;99149.34;3549889;40;20049;-66
2021/04/19 00:46:03;;;;;;;17.92;13.95;;;;;;;8.03;66.99;99145.41;3549796;40;20072;-66
2021/04/19 00:48:31;;;;;;;19.38;12.05;;;;;;;7.83;68.14;99144.94;3549677;40;20067;-66
2021/04/19 00:50:58;;;;;;;15.10;11.70;;;;;;;7.77;68.19;99151.72;3549826;40;20054;-66
2021/04/19 00:53:27;;;;;;;17.63;11.18;;;;;;;7.76;68.99;99146.63;3551178;40;20112;-66
2021/04/19 00:55:55;;;;;;;15.73;11.90;;;;;;;7.91;68.59;99139.66;3551961;40;20057;-68
2021/04/19 00:58:25;;;;;;;15.95;11.77;;;;;;;7.93;68.35;99138.53;3549905;40;20050;-67
2021/04/19 01:00:52;;;;;;;14.68;10.93;;;;;;;7.99;68.49;99130.94;3549653;40;20057;-66
2021/04/19 01:03:20;;;;;;;15.80;12.15;;;;;;;8.05;67.87;99138.19;3540627;40;20082;-66
2021/04/19 01:05:48;;;;;;;18.08;12.02;;;;;;;7.78;68.53;99129.66;3549693;40;20070;-66
2021/04/19 01:08:15;;;;;;;14.38;12.05;;;;;;;7.71;68.94;99133.94;3549223;40;20054;-65
2021/04/19 01:10:44;;;;;;;17.08;11.75;;;;;;;7.76;69.61;99129.03;3541236;40;20060;-66
2021/04/19 01:13:12;;;;;;;16.92;12.27;;;;;;;7.94;69.45;99126.19;3549642;40;20054;-64
2021/04/19 01:15:39;;;;;;;17.65;13.45;;;;;;;8.01;69.13;99129.78;3540453;40;20347;-65
2021/04/19 01:18:07;;;;;;;17.85;13.38;;;;;;;8.08;69.12;99128.13;3549416;40;20054;-67
2021/04/19 01:20:38;;;;;;;19.67;13.45;;;;;;;8.14;69.32;99124.81;3541901;40;20038;-65
2021/04/19 01:23:06;;;;;;;18.45;14.48;;;;;;;8.12;68.84;99133.88;3542491;40;20404;-64
2021/04/19 01:25:34;;;;;;;17.58;14.07;;;;;;;8.05;69.10;99132.91;3543078;40;20045;-67
2021/04/19 01:28:01;;;;;;;16.83;13.02;;;;;;;8.03;69.35;99132.25;3543706;40;20054;-67
2021/04/19 01:30:32;;;;;;;17.13;13.38;;;;;;;7.99;69.77;99130.94;3552911;40;20089;-65
2021/04/19 01:33:00;;;;;;;20.27;12.20;;;;;;;8.01;69.97;99127.16;3543564;40;20053;-65
2021/04/19 01:35:29;;;;;;;19.92;12.75;;;;;;;8.03;69.71;99122.53;3543342;40;20462;-67
2021/04/19 01:37:58;;;;;;;18.20;13.77;;;;;;;7.98;69.59;99130.13;3542763;40;20027;-65
2021/04/19 01:40:27;;;;;;;23.40;14.40;;;;;;;7.95;69.93;99122.56;3551781;40;20050;-66
2021/04/19 01:42:54;;;;;;;21.63;15.18;;;;;;;7.88;69.77;99124.22;3551976;40;20113;-65
2021/04/19 01:45:22;;;;;;;20.75;14.98;;;;;;;7.80;70.20;99122.44;3551620;40;20046;-65
2021/04/19 01:47:50;;;;;;;21.23;14.57;;;;;;;7.78;70.42;99127.03;3542025;40;20052;-69
2021/04/19 01:50:20;;;;;;;19.02;14.35;;;;;;;7.86;70.64;99121.75;3550048;40;20084;-65
2021/04/19 01:52:51;;;;;;;;;;;;;;;7.99;70.54;99123.84;3543655;40;20071;-65
2021/04/19 01:55:20;;;;;;;21.55;14.60;;;;;;;8.07;70.21;99118.56;3543264;40;19933;-65
2021/04/19 01:57:51;;;;;;;23.27;15.07;;;;;;;8.12;70.19;99118.06;3542825;40;20476;-66
2021/04/19 02:00:23;;;;;;;21.13;16.00;;;;;;;8.10;70.21;99118.25;3543374;40;20070;-65
2021/04/19 02:03:07;;;;;;;24.02;15.38;;;;;;;8.11;70.37;99113.78;3543344;40;20053;-65
2021/04/19 02:05:46;;;;;;;18.40;14.63;;;;;;;8.09;70.62;99119.25;3543335;40;20050;-66
2021/04/19 02:08:25;;;;;;;24.52;16.20;;;;;;;8.12;70.48;99118.91;3542761;40;20046;-65
2021/04/19 02:11:03;;;;;;;21.77;16.95;;;;;;;8.08;70.38;99129.94;3542590;40;20399;-66
2021/04/19 02:13:39;;;;;;;23.80;16.67;;;;;;;8.06;70.51;99119.56;3552037;40;20050;-65
2021/04/19 02:16:21;;;;;;;23.60;16.80;;;;;;;8.11;70.50;99117.25;3551792;40;20055;-66
2021/04/19 02:18:53;;;;;;;20.95;15.23;;;;;;;8.14;70.50;99118.72;3543461;40;20168;-65
2021/04/19 02:21:26;;;;;;;24.23;16.80;;;;;;;8.11;70.53;99119.06;3542698;40;20030;-65
2021/04/19 02:23:58;;;;;;;22.30;16.83;;;;;;;8.11;70.51;99116.44;3541558;40;20066;-65
2021/04/19 02:26:31;;;;;;;22.83;16.70;;;;;;;8.17;70.31;99121.03;3541711;40;20398;-66
2021/04/19 02:29:02;;;;;;;33.47;17.90;;;;;;;8.18;70.29;99114.78;3550900;40;20077;-66
2021/04/19 02:31:35;;;;;;;25.55;17.58;;;;;;;8.23;70.16;99114.25;3540856;40;20042;-65
2021/04/19 02:34:04;;;;;;;27.52;18.10;;;;;;;8.20;70.09;99115.41;3549956;40;20038;-65
2021/04/19 02:36:31;;;;;;;29.13;17.98;;;;;;;8.18;70.01;99112.13;3595310;23;20039;-64
2021/04/19 02:39:00;;;;;;;22.48;16.90;;;;;;;8.15;70.18;99118.56;3549046;40;20057;-65
2021/04/19 02:41:29;;;;;;;24.83;17.90;;;;;;;8.17;70.31;99111.31;3549358;40;20388;-65
2021/04/19 02:43:58;;;;;;;28.60;19.23;;;;;;;8.15;70.38;99115.09;3549340;40;20323;-65
2021/04/19 02:46:38;;;;;;;24.08;17.10;;;;;;;8.15;70.30;99110.66;3540166;40;20498;-65
2021/04/19 02:49:06;;;;;;;25.92;17.77;;;;;;;8.16;70.66;99108.84;3539708;40;20054;-65
2021/04/19 02:51:33;;;;;;;24.50;17.30;;;;;;;8.17;70.74;99110.50;3549107;40;20090;-65
2021/04/19 02:54:01;;;;;;;23.45;17.30;;;;;;;8.23;70.20;99109.00;3548672;40;20054;-65
2021/04/19 02:56:33;;;;;;;25.23;16.73;;;;;;;8.23;70.28;99106.34;3540172;40;20046;-65
2021/04/19 02:59:04;;;;;;;24.42;16.98;;;;;;;8.21;70.33;99103.91;3549376;40;20058;-65
2021/04/19 03:01:39;;;;;;;25.23;17.70;;;;;;;8.26;70.59;99108.66;3540428;40;20124;-64
2021/04/19 03:04:09;;;;;;;28.67;21.52;;;;;;;8.27;70.08;99103.22;3549067;40;20319;-66
2021/04/19 03:06:44;;;;;;;29.23;20.40;;;;;;;8.08;70.63;99111.50;3540049;40;20058;-65
2021/04/19 03:09:20;;;;;;;25.23;18.58;;;;;;;7.94;71.51;99103.31;3540067;40;20293;-65
2021/04/19 03:11:53;;;;;;;31.05;20.70;;;;;;;7.96;71.60;99095.25;3549129;40;20372;-65
2021/04/19 03:14:24;;;;;;;24.15;17.42;;;;;;;7.95;71.75;99102.31;3539985;40;20498;-66
2021/04/19 03:17:02;;;;;;;26.83;20.05;;;;;;;8.10;71.90;99099.00;3539685;40;20431;-64
2021/04/19 03:19:56;;;;;;;27.20;19.48;;;;;;;8.23;71.13;99098.47;3528375;40;20054;-65
2021/04/19 03:22:30;;;;;;;27.55;18.83;;;;;;;8.28;71.09;99096.94;3539757;40;20042;-65
2021/04/19 03:24:58;;;;;;;27.92;20.00;;;;;;;8.26;70.90;99098.94;3548753;40;20054;-65
2021/04/19 03:27:31;;;;;;;32.92;22.35;;;;;;;8.09;71.16;99107.91;3539655;40;20053;-65
2021/04/19 03:30:06;;;;;;;32.70;21.30;;;;;;;7.95;71.36;99106.75;3539983;40;20426;-65
2021/04/19 03:32:46;;;;;;;28.38;20.73;;;;;;;7.85;71.62;99106.13;3539586;40;20396;-66
2021/04/19 03:35:16;;;;;;;29.00;20.40;;;;;;;7.76;72.22;99102.69;3540159;40;20042;-65
2021/04/19 03:37:46;;;;;;;30.92;22.40;;;;;;;7.77;72.40;99106.16;3540023;40;20073;-65
2021/04/19 03:40:19;;;;;;;29.63;21.45;;;;;;;7.72;72.41;99101.38;3539796;40;20058;-65
2021/04/19 03:42:50;;;;;;;29.45;21.90;;;;;;;7.70;72.87;99100.72;3539758;40;20136;-67
2021/04/19 03:45:24;;;;;;;29.60;21.65;;;;;;;7.79;73.14;99096.25;3548983;40;20034;-66
2021/04/19 03:48:13;;;;;;;30.65;20.83;;;;;;;7.92;72.98;99093.97;3548741;40;20061;-65
2021/04/19 03:50:49;;;;;;;30.17;21.75;;;;;;;7.93;72.57;99099.03;3540020;40;20082;-65
2021/04/19 03:53:20;;;;;;;30.85;21.88;;;;;;;7.95;72.66;99094.41;3539532;40;20062;-66
2021/04/19 03:55:48;;;;;;;32.25;23.05;;;;;;;7.95;72.64;99093.59;3548754;40;20054;-66
2021/04/19 03:58:20;;;;;;;27.67;22.50;;;;;;;7.92;72.59;99084.25;3539784;40;20042;-66
2021/04/19 04:00:50;;;;;;;27.58;20.33;;;;;;;7.89;72.95;99089.84;3540101;40;20102;-66
2021/04/19 04:03:28;;;;;;;34.97;24.98;;;;;;;7.91;73.26;99094.91;3539796;40;20082;-66
2021/04/19 04:06:15;;;;;;;28.23;21.42;;;;;;;7.78;72.97;99090.19;3550211;40;20128;-66
2021/04/19 04:08:44;;;;;;;32.13;23.00;;;;;;;7.67;73.62;99088.75;3541314;40;20054;-66
2021/04/19 04:11:16;;;;;;;30.35;22.55;;;;;;;7.69;73.86;99088.56;3541658;40;20046;-66
2021/04/19 04:13:47;;;;;;;32.05;21.77;;;;;;;7.69;74.13;99086.75;3541629;40;20434;-66
2021/04/19 04:16:14;;;;;;;26.60;20.92;;;;;;;7.81;74.00;99081.13;3550684;40;20090;-66
2021/04/19 04:19:00;;;;;;;30.15;20.98;;;;;;;7.97;73.72;99082.91;3540875;40;20050;-66
2021/04/19 04:21:31;;;;;;;28.23;20.30;;;;;;;8.01;73.55;99085.03;3541040;40;20046;-66
2021/04/19 04:24:05;;;;;;;;;;;;;;;7.98;73.62;99095.09;3541992;40;20046;-66
2021/04/19 04:26:34;;;;;;;31.15;20.63;;;;;;;7.95;73.37;99088.31;3550350;40;19934;-66
2021/04/19 04:29:02;;;;;;;32.10;22.38;;;;;;;7.91;73.34;99093.09;3540711;40;20421;-67
2021/04/19 04:31:35;;;;;;;36.00;23.38;;;;;;;7.81;73.80;99087.22;3541408;40;20054;-66
2021/04/19 04:34:09;;;;;;;33.42;23.00;;;;;;;7.79;74.20;99091.81;3543056;40;20062;-66
2021/04/19 04:36:37;;;;;;;29.25;22.17;;;;;;;7.90;74.29;99086.22;3546372;40;20380;-66
2021/04/19 04:39:10;;;;;;;31.77;22.27;;;;;;;8.05;74.15;99090.78;3555982;40;20050;-66
2021/04/19 04:41:46;;;;;;;33.15;22.25;;;;;;;8.15;73.47;99097.47;3556471;40;20027;-69
2021/04/19 04:44:17;;;;;;;34.67;23.25;;;;;;;8.15;73.44;99092.22;3546797;40;20046;-66
2021/04/19 04:46:52;;;;;;;35.47;26.08;;;;;;;8.21;73.31;99087.28;3553794;40;20046;-66
2021/04/19 04:49:24;;;;;;;35.70;26.52;;;;;;;8.18;73.00;99085.81;3541701;40;20061;-66
2021/04/19 04:51:53;;;;;;;33.08;23.70;;;;;;;8.00;73.13;99093.09;3550634;40;20166;-66
2021/04/19 04:54:23;;;;;;;31.55;23.17;;;;;;;7.96;73.61;99100.53;3541730;40;20174;-66
2021/04/19 04:56:53;;;;;;;31.10;23.48;;;;;;;7.92;73.62;99099.22;3550392;40;20057;-66
2021/04/19 04:59:22;;;;;;;32.85;22.23;;;;;;;7.87;73.99;99104.16;3550182;40;20133;-66
2021/04/19 05:01:50;;;;;;;31.33;23.48;;;;;;;7.86;73.88;99103.31;3550062;40;20046;-66
2021/04/19 05:04:17;;;;;;;37.75;26.55;;;;;;;7.90;74.08;99102.00;3540728;40;20058;-66
2021/04/19 05:06:45;;;;;;;38.60;28.05;;;;;;;7.90;74.02;99099.38;3549743;40;20054;-66
2021/04/19 05:09:13;;;;;;;40.40;27.55;;;;;;;7.83;74.11;99108.09;3549688;40;20327;-66
2021/04/19 05:11:40;;;;;;;35.33;26.60;;;;;;;7.78;74.39;99108.59;3549891;40;20058;-66
2021/04/19 05:14:08;;;;;;;36.63;26.73;;;;;;;7.76;74.58;99113.22;3550170;40;20094;-66
2021/04/19 05:16:37;;;;;;;33.55;24.02;;;;;;;7.79;74.75;99115.50;3540150;40;20053;-66
2021/04/19 05:19:06;;;;;;;27.77;19.95;;;;;;;7.79;74.41;99110.25;3549508;40;20090;-66
2021/04/19 05:21:33;;;;;;;31.15;22.40;;;;;;;7.81;74.69;99116.19;3549676;40;20388;-66
2021/04/19 05:24:00;;;;;;;30.17;22.42;;;;;;;7.86;74.47;99113.03;3549547;40;20046;-66
2021/04/19 05:26:27;;;;;;;28.55;21.85;;;;;;;7.88;74.50;99106.63;3549981;40;20050;-66
2021/04/19 05:28:54;;;;;;;30.48;21.67;;;;;;;7.97;74.37;99117.13;3549366;40;20050;-66
2021/04/19 05:31:22;;;;;;;34.58;24.33;;;;;;;7.98;74.00;99111.69;3549795;40;20078;-67
2021/04/19 05:33:54;;;;;;;33.13;24.45;;;;;;;7.91;73.86;99113.34;3549622;40;20054;-66
2021/04/19 05:36:23;;;;;;;35.42;26.75;;;;;;;7.89;74.08;99112.72;3549834;40;20043;-66
2021/04/19 05:38:52;;;;;;;31.83;23.55;;;;;;;7.92;73.82;99122.91;3549581;40;20046;-67
2021/04/19 05:41:20;;;;;;;30.15;22.55;;;;;;;7.94;74.17;99118.28;3549634;40;20086;-67
2021/04/19 05:43:48;;;;;;;32.78;23.92;;;;;;;7.97;74.15;99117.97;3540486;40;20046;-66
2021/04/19 05:46:17;;;;;;;33.10;23.88;;;;;;;8.03;73.81;99125.16;3549800;40;20038;-66
2021/04/19 05:48:45;;;;;;;33.83;23.17;;;;;;;8.06;74.28;99121.38;3549273;40;20054;-66
2021/04/19 05:51:24;;;;;;;30.80;21.58;;;;;;;8.13;73.98;99117.09;3549890;40;20325;-67
2021/04/19 05:53:53;;;;;;;35.22;25.02;;;;;;;8.17;73.43;99124.50;3549839;40;20062;-67
2021/04/19 05:56:30;;;;;;;35.17;24.30;;;;;;;8.09;73.50;99124.50;3549911;40;20085;-66
2021/04/19 05:59:03;;;;;;;31.83;24.63;;;;;;;8.11;73.84;99127.78;3549612;40;20042;-66
2021/04/19 06:01:33;;;;;;;35.40;25.52;;;;;;;8.18;73.67;99127.94;3549713;40;20054;-66
2021/04/19 06:04:10;;;;;;;36.38;25.88;;;;;;;8.21;73.77;99129.41;3549909;40;20430;-66
2021/04/19 06:06:43;;;;;;;35.80;26.85;;;;;;;8.27;73.25;99131.38;3549882;40;20053;-67
2021/04/19 06:09:21;;;;;;;37.60;27.15;;;;;;;8.31;73.42;99132.66;3540646;40;20050;-67
2021/04/19 06:12:25;;;;;;;36.90;26.38;;;;;;;8.41;73.17;99125.44;3550033;40;20129;-67
2021/04/19 06:15:04;;;;;;;35.88;26.20;;;;;;;8.52;73.31;99122.41;3540815;40;20046;-67
2021/04/19 06:17:32;;;;;;;30.27;24.33;;;;;;;8.61;72.87;99128.44;3550060;40;20046;-67
2021/04/19 06:20:00;;;;;;;35.28;26.13;;;;;;;8.70;72.50;99127.44;3550036;40;20428;-66
2021/04/19 06:22:28;;;;;;;29.33;22.90;;;;;;;8.71;72.27;99123.81;3549740;40;20174;-66
2021/04/19 06:24:55;;;;;;;29.70;23.35;;;;;;;8.86;72.44;99130.00;3549879;40;20046;-66
2021/04/19 06:27:23;;;;;;;32.88;23.52;;;;;;;9.05;72.54;99127.88;3549677;40;20407;-66
2021/04/19 06:29:51;;;;;;;29.95;22.40;;;;;;;9.25;71.54;99123.78;3543279;40;20050;-67
2021/04/19 06:32:21;;;;;;;29.67;23.38;;;;;;;9.37;71.06;99121.56;3555665;40;20497;-66
2021/04/19 06:34:48;;;;;;;32.33;23.27;;;;;;;9.35;70.33;99123.56;3556052;40;20043;-67
2021/04/19 06:37:17;;;;;;;30.73;23.33;;;;;;;9.39;70.59;99123.03;3554074;40;20392;-67
2021/04/19 06:39:46;;;;;;;33.88;23.85;;;;;;;9.44;70.31;99130.41;3549757;40;20057;-67
2021/04/19 06:42:14;;;;;;;36.65;23.88;;;;;;;9.47;70.54;99134.50;3532827;40;20081;-66
2021/04/19 06:44:41;;;;;;;30.92;24.88;;;;;;;9.58;70.61;99131.44;3549552;40;20050;-66
2021/04/19 06:47:09;;;;;;;30.63;23.27;;;;;;;9.60;70.36;99122.38;3549453;40;20057;-66
2021/04/19 06:49:37;;;;;;;34.90;23.63;;;;;;;9.69;70.59;99131.03;3550610;40;20077;-66
2021/04/19 06:52:05;;;;;;;35.78;27.30;;;;;;;9.73;69.61;99129.69;3551653;40;20082;-66
2021/04/19 06:54:32;;;;;;;37.20;27.38;;;;;;;9.55;69.64;99127.38;3551011;40;20053;-66
2021/04/19 06:57:00;;;;;;;31.02;24.42;;;;;;;9.44;69.78;99122.50;3543218;40;20046;-69
2021/04/19 06:59:30;;;;;;;30.88;22.83;;;;;;;9.56;70.50;99129.00;3549626;40;20070;-66
2021/04/19 07:01:59;;;;;;;32.83;24.52;;;;;;;9.88;70.45;99125.25;3550022;40;20050;-66
2021/04/19 07:04:27;;;;;;;31.00;24.00;;;;;;;10.14;69.50;99124.00;3549880;40;20049;-66
2021/04/19 07:06:55;;;;;;;34.90;26.60;;;;;;;10.30;69.09;99121.19;3549108;40;20077;-66
2021/04/19 07:09:26;;;;;;;35.00;25.23;;;;;;;10.31;68.76;99125.47;3549238;40;20069;-66
2021/04/19 07:11:55;;;;;;;35.38;26.50;;;;;;;10.23;69.04;99128.16;3549002;40;20050;-67
2021/04/19 07:14:28;;;;;;;33.78;26.25;;;;;;;10.38;68.92;99122.94;3548980;40;20054;-67
2021/04/19 07:16:55;;;;;;;33.03;26.15;;;;;;;10.50;68.76;99125.94;3548776;40;20411;-67
2021/04/19 07:19:23;;;;;;;35.30;24.45;;;;;;;10.56;68.41;99118.06;3549205;40;20396;-67
2021/04/19 07:21:51;;;;;;;35.72;26.35;;;;;;;10.53;68.51;99120.25;3549452;40;20053;-65
2021/04/19 07:24:20;;;;;;;37.85;28.52;;;;;;;10.56;68.50;99118.06;3548854;40;20082;-66
2021/04/19 07:26:50;;;;;;;37.10;26.05;;;;;;;10.51;68.63;99117.00;3540394;40;20058;-66
2021/04/19 07:29:17;;;;;;;33.22;25.60;;;;;;;10.70;68.44;99116.41;3548907;40;20054;-67
2021/04/19 07:31:49;;;;;;;36.67;27.95;;;;;;;10.78;67.43;99121.59;3549010;40;20050;-67
2021/04/19 07:34:18;;;;;;;37.05;26.98;;;;;;;10.71;67.86;99120.69;3539802;40;20046;-67
2021/04/19 07:36:50;;;;;;;33.53;25.50;;;;;;;10.82;67.80;99119.41;3549403;40;20046;-67
2021/04/19 07:39:19;;;;;;;35.17;26.08;;;;;;;10.98;67.52;99113.03;3549526;40;20053;-65
2021/04/19 07:41:49;;;;;;;33.63;25.35;;;;;;;11.02;67.20;99112.50;3550558;40;20098;-66
2021/04/19 07:44:33;;;;;;;33.42;25.85;;;;;;;11.04;66.94;99112.31;3550582;40;20050;-66
2021/04/19 07:47:38;;;;;;;33.53;24.90;;;;;;;11.12;66.86;99114.81;3550237;40;20093;-66
2021/04/19 07:50:11;;;;;;;32.50;24.80;;;;;;;11.19;66.50;99114.91;3550434;40;20062;-66
2021/04/19 07:52:54;;;;;;;35.10;23.77;;;;;;;11.24;65.91;99117.78;3550420;40;20403;-66
2021/04/19 07:55:24;;;;;;;32.28;23.50;;;;;;;11.32;65.73;99115.03;3550784;40;20144;-66
2021/04/19 07:58:16;;;;;;;28.98;22.70;;;;;;;11.53;65.78;99112.34;3541016;40;20046;-67
2021/04/19 08:00:44;;;;;;;32.28;26.55;;;;;;;11.71;64.25;99114.53;3550815;40;20061;-66
2021/04/19 08:03:14;;;;;;;32.50;27.05;;;;;;;11.72;64.14;99110.88;3550414;40;20117;-66
2021/04/19 08:05:45;;;;;;;29.90;25.35;;;;;;;11.71;63.19;99117.16;3550020;40;20046;-66
2021/04/19 08:08:11;;;;;;;31.70;23.58;;;;;;;11.60;63.95;99113.22;3549955;40;20042;-66
2021/04/19 08:10:39;;;;;;;35.25;27.73;;;;;;;11.68;64.07;99114.94;3550375;40;20054;-66
2021/04/19 08:13:09;;;;;;;27.67;21.92;;;;;;;11.39;63.30;99114.06;3550435;40;20050;-66
2021/04/19 08:15:38;;;;;;;24.58;18.83;;;;;;;11.14;63.47;99118.09;3550104;40;20061;-66
2021/04/19 08:18:08;;;;;;;24.33;19.77;;;;;;;10.95;64.39;99116.09;3550283;40;20046;-66
2021/04/19 08:20:38;;;;;;;30.10;24.80;;;;;;;10.95;64.59;99114.25;3550217;40;20116;-66
2021/04/19 08:23:10;;;;;;;27.83;23.00;;;;;;;10.86;64.39;99112.72;3542431;40;20054;-66
2021/04/19 08:25:40;;;;;;;30.52;22.42;;;;;;;10.75;65.16;99124.59;3553892;40;20117;-67
2021/04/19 08:28:11;;;;;;;28.77;21.02;;;;;;;10.72;65.83;99124.16;3550153;40;20046;-67
2021/04/19 08:30:38;;;;;;;31.33;24.77;;;;;;;10.76;65.41;99125.41;3550480;40;20046;-66
2021/04/19 08:33:07;;;;;;;29.95;23.35;;;;;;;10.64;65.76;99122.44;3550292;40;20054;-67
2021/04/19 08:35:34;;;;;;;29.23;23.50;;;;;;;10.53;66.04;99118.47;3584499;23;20047;-69
2021/04/19 08:38:04;;;;;;;28.17;20.50;;;;;;;10.49;66.52;99118.97;3542159;40;20053;-70
2021/04/19 08:40:33;;;;;;;30.10;23.33;;;;;;;10.52;66.60;99122.06;3551744;40;20362;-69
2021/04/19 08:43:01;;;;;;;30.50;22.25;;;;;;;10.36;66.18;99128.38;3542393;40;20050;-69
2021/04/19 08:45:28;;;;;;;31.23;22.90;;;;;;;10.37;66.53;99121.28;3551738;40;20046;-69
2021/04/19 08:48:00;;;;;;;32.13;23.88;;;;;;;10.45;66.58;99128.28;3551374;40;20072;-69
2021/04/19 08:50:28;;;;;;;26.45;20.95;;;;;;;10.47;66.49;99129.75;3542583;40;20054;-69
2021/04/19 08:52:57;;;;;;;29.95;22.42;;;;;;;10.52;66.34;99131.84;3554996;40;20050;-69
2021/04/19 08:55:26;;;;;;;30.48;20.95;;;;;;;10.56;66.28;99133.91;3544169;40;20030;-69
2021/04/19 08:57:53;;;;;;;27.13;20.85;;;;;;;10.60;66.36;99140.47;3553664;40;20042;-71
2021/04/19 09:00:25;;;;;;;26.52;21.27;;;;;;;10.67;66.90;99132.66;3542857;40;20378;-69
2021/04/19 09:02:52;;;;;;;22.45;17.73;;;;;;;10.72;66.44;99138.19;3542473;40;20080;-69
2021/04/19 09:05:23;;;;;;;25.08;21.20;;;;;;;10.69;65.74;99135.09;3550756;40;20039;-69
2021/04/19 09:08:02;;;;;;;22.63;18.08;;;;;;;10.51;66.03;99128.38;3541899;40;20067;-69
2021/04/19 09:10:48;;;;;;;24.40;19.98;;;;;;;10.43;66.32;99135.59;3550889;40;20046;-69
2021/04/19 09:13:26;;;;;;;23.13;18.05;;;;;;;10.22;66.43;99137.09;3550636;40;20053;-70
2021/04/19 09:15:54;;;;;;;22.77;18.83;;;;;;;10.07;66.61;99133.63;3551101;40;20114;-71
2021/04/19 09:18:21;;;;;;;21.40;18.38;;;;;;;10.08;67.14;99135.25;3550836;40;20450;-69
2021/04/19 09:20:51;;;;;;;19.77;15.93;;;;;;;10.07;67.16;99131.81;3551137;40;20396;-69
2021/04/19 09:23:19;;;;;;;21.63;16.75;;;;;;;10.06;67.04;99132.81;3551047;40;20391;-69
2021/04/19 09:25:47;;;;;;;19.05;15.20;;;;;;;10.10;67.13;99139.38;3551848;40;20082;-68
2021/04/19 09:28:14;;;;;;;22.23;17.60;;;;;;;10.20;67.34;99133.81;3553301;40;20046;-68
2021/04/19 09:30:45;;;;;;;38.47;26.92;;;;;;;10.19;67.41;99134.81;3553115;40;20074;-69
2021/04/19 09:33:22;;;;;;;23.98;18.88;;;;;;;10.21;67.76;99135.47;3554141;40;20097;-69
2021/04/19 09:35:50;;;;;;;17.75;14.15;;;;;;;10.26;67.52;99133.13;3552908;40;20049;-70
2021/04/19 09:38:54;;;;;;;22.83;16.63;;;;;;;10.35;67.44;99134.66;3552966;40;20046;-68
2021/04/19 09:41:22;;;;;;;16.73;14.60;;;;;;;10.38;67.18;99131.66;3551991;40;20068;-66
2021/04/19 09:43:53;;;;;;;19.38;15.00;;;;;;;10.54;66.88;99125.38;3551648;40;20082;-66
2021/04/19 09:46:30;;;;;;;20.23;15.55;;;;;;;10.80;67.50;99130.16;3551643;40;20065;-66
2021/04/19 09:48:59;;;;;;;28.10;19.65;;;;;;;11.04;67.43;99128.19;3551378;40;20046;-66
2021/04/19 09:51:37;;;;;;;26.92;21.08;;;;;;;11.21;67.17;99129.56;3549909;40;20105;-66
2021/04/19 09:54:08;;;;;;;30.70;22.67;;;;;;;11.29;66.81;99129.44;3549579;40;20089;-66
2021/04/19 09:56:39;;;;;;;27.70;22.45;;;;;;;11.31;67.17;99124.78;3549757;40;20061;-67
2021/04/19 09:59:07;;;;;;;34.20;22.90;;;;;;;11.40;67.32;99123.66;3532119;40;20317;-67
2021/04/19 10:01:35;;;;;;;26.33;19.05;;;;;;;11.34;67.02;99129.69;3540548;40;20320;-67
2021/04/19 10:04:04;;;;;;;26.98;19.77;;;;;;;11.21;67.31;99129.56;3549397;40;20054;-68
2021/04/19 10:06:38;;;;;;;28.70;22.85;;;;;;;11.16;67.47;99131.97;3549512;40;20043;-68
2021/04/19 10:09:07;;;;;;;;;;;;;;;11.12;67.95;99131.53;3540673;40;20078;-67
2021/04/19 10:11:39;;;;;;;30.10;22.95;;;;;;;10.96;68.21;99128.28;3540700;40;19938;-69
2021/04/19 10:14:08;;;;;;;32.45;24.45;;;;;;;10.96;68.76;99129.09;3550696;40;20041;-67
2021/04/19 10:16:42;;;;;;;32.97;25.08;;;;;;;10.85;68.93;99137.53;3551635;40;20061;-67
2021/04/19 10:19:09;;;;;;;;;;;;;;;10.73;69.56;99131.88;3550892;40;20086;-67
2021/04/19 10:21:37;;;;;;;38.83;26.02;;;;;;;10.70;69.49;99144.69;3549680;40;19934;-66
2021/04/19 10:24:12;;;;;;;38.60;26.13;;;;;;;10.57;69.69;99140.88;3549556;40;20046;-66
2021/04/19 10:26:40;;;;;;;35.53;25.02;;;;;;;10.56;70.18;99133.91;3549975;40;20054;-67
2021/04/19 10:29:12;;;;;;;35.35;25.98;;;;;;;10.60;70.16;99139.66;3549369;40;20046;-67
2021/04/19 10:31:46;;;;;;;32.33;25.33;;;;;;;10.60;70.15;99137.84;3549523;40;20058;-66
2021/04/19 10:34:13;;;;;;;35.03;25.38;;;;;;;10.61;69.68;99141.28;3549618;40;20397;-67
2021/04/19 10:36:46;;;;;;;33.60;25.92;;;;;;;10.61;69.87;99139.50;3549249;40;20046;-66
2021/04/19 10:39:16;;;;;;;33.63;25.75;;;;;;;10.56;69.90;99141.84;3549535;40;20412;-67
2021/04/19 10:41:46;;;;;;;31.58;25.27;;;;;;;10.56;69.68;99138.41;3549556;40;20580;-67
2021/04/19 10:44:13;;;;;;;33.70;25.23;;;;;;;10.57;69.94;99140.88;3549571;40;20054;-66
2021/04/19 10:46:42;;;;;;;30.73;24.55;;;;;;;10.51;69.93;99138.13;3549301;40;20055;-66
2021/04/19 10:49:21;;;;;;;30.50;23.48;;;;;;;10.52;69.93;99137.94;3549200;40;20046;-66
2021/04/19 10:51:52;;;;;;;37.15;25.05;;;;;;;10.46;70.18;99132.59;3540472;40;20053;-68
2021/04/19 10:54:20;;;;;;;31.95;24.38;;;;;;;10.44;70.05;99131.94;3549273;40;20057;-69
2021/04/19 10:56:47;;;;;;;29.20;24.38;;;;;;;10.41;70.37;99133.97;3550324;40;20159;-69
2021/04/19 10:59:14;;;;;;;32.63;25.35;;;;;;;10.52;70.52;99139.75;3540731;40;20042;-69
2021/04/19 11:01:43;;;;;;;31.02;25.33;;;;;;;10.56;70.35;99128.63;3549252;40;20062;-65
2021/04/19 11:04:11;;;;;;;36.70;26.98;;;;;;;10.69;70.57;99130.63;3549428;40;20065;-66
2021/04/19 11:06:38;;;;;;;30.95;23.88;;;;;;;10.69;70.20;99125.34;3548871;40;20062;-67
2021/04/19 11:09:16;;;;;;;26.88;21.83;;;;;;;10.74;69.69;99128.25;3548903;40;20053;-67
2021/04/19 11:11:44;;;;;;;30.38;22.70;;;;;;;10.81;69.74;99126.50;3549125;40;20508;-66
2021/04/19 11:14:18;;;;;;;26.05;19.85;;;;;;;10.82;69.02;99122.88;3548680;40;20347;-64
2021/04/19 11:16:50;;;;;;;30.23;22.30;;;;;;;10.79;68.96;99123.22;3549270;40;20062;-68
2021/04/19 11:19:30;;;;;;;24.70;18.83;;;;;;;10.86;68.44;99123.31;3549532;40;20050;-68
2021/04/19 11:22:01;;;;;;;21.02;17.60;;;;;;;10.89;67.98;99120.28;3549799;40;20057;-67
2021/04/19 11:24:35;;;;;;;24.77;18.42;;;;;;;10.89;67.78;99120.28;3541063;40;20087;-69
2021/04/19 11:27:08;;;;;;;29.98;21.85;;;;;;;10.94;68.10;99120.56;3551336;40;20101;-68
2021/04/19 11:29:38;;;;;;;30.67;22.08;;;;;;;10.91;68.24;99119.09;3555396;40;20054;-69
2021/04/19 11:32:10;;;;;;;23.17;18.23;;;;;;;10.99;68.19;99114.69;3547131;40;20050;-66
2021/04/19 11:34:39;;;;;;;31.15;22.73;;;;;;;11.06;67.82;99116.41;3555497;40;20054;-70
2021/04/19 11:37:25;;;;;;;;;;;;;;;11.04;68.13;99114.94;3552930;40;20053;-67
2021/04/19 11:39:53;;;;;;;28.70;20.35;;;;;;;11.12;68.04;99115.66;3541276;40;20268;-67
2021/04/19 11:42:31;;;;;;;30.67;19.48;;;;;;;11.16;67.35;99116.91;3549852;40;20031;-66